createdAt,value
2023-05-19T00:00:18.682Z,0.00
2023-05-19T00:00:48.173Z,0.00
2023-05-19T00:01:18.526Z,0.00
2023-05-19T00:01:50.155Z,0.00
2023-05-19T00:02:23.491Z,0.00
2023-05-19T00:02:45.096Z,0.00
2023-05-19T00:03:08.319Z,0.00
2023-05-19T00:03:42.583Z,0.00
2023-05-19T00:04:14.399Z,0.00
2023-05-19T00:04:46.569Z,0.00
2023-05-19T00:05:20.939Z,0.00
2023-05-19T00:05:50.069Z,0.00
2023-05-19T00:06:22.014Z,0.00
2023-05-19T00:06:44.765Z,0.00
2023-05-19T00:07:07.758Z,0.00
2023-05-19T00:07:42.846Z,0.00
2023-05-19T00:08:14.026Z,0.00
2023-05-19T00:08:46.660Z,0.00
2023-05-19T00:09:18.863Z,0.00
2023-05-19T00:09:51.768Z,0.00
2023-05-19T00:10:22.243Z,0.00
2023-05-19T00:10:45.176Z,0.00
2023-05-19T00:11:07.438Z,0.00
2023-05-19T00:11:42.823Z,0.00
2023-05-19T00:12:14.147Z,0.00
2023-05-19T00:12:45.955Z,0.00
2023-05-19T00:13:19.539Z,0.00
2023-05-19T00:13:51.145Z,0.00
2023-05-19T00:14:22.153Z,0.00
2023-05-19T00:14:44.994Z,0.00
2023-05-19T00:15:07.777Z,0.00
2023-05-19T00:15:42.593Z,0.00
2023-05-19T00:16:14.469Z,0.00
2023-05-19T00:16:46.183Z,0.00
2023-05-19T00:17:19.561Z,0.00
2023-05-19T00:17:51.271Z,0.00
2023-05-19T00:18:27.714Z,0.00
2023-05-19T00:18:44.798Z,0.00
2023-05-19T00:19:08.589Z,0.00
2023-05-19T00:19:45.249Z,0.00
2023-05-19T00:20:24.961Z,0.00
2023-05-19T00:20:42.792Z,0.00
2023-05-19T00:21:17.946Z,0.00
2023-05-19T00:21:51.619Z,0.00
2023-05-19T00:22:22.022Z,0.00
2023-05-19T00:22:45.558Z,0.00
2023-05-19T00:23:07.480Z,0.00
2023-05-19T00:23:41.919Z,0.00
2023-05-19T00:24:14.108Z,0.00
2023-05-19T00:24:45.799Z,0.00
2023-05-19T00:25:17.882Z,0.00
2023-05-19T00:25:52.104Z,0.00
2023-05-19T00:26:22.237Z,0.00
2023-05-19T00:26:46.721Z,0.00
2023-05-19T00:27:08.762Z,0.00
2023-05-19T00:27:41.818Z,0.00
2023-05-19T00:28:14.034Z,0.00
2023-05-19T00:28:46.295Z,0.00
2023-05-19T00:29:18.000Z,0.00
2023-05-19T00:29:49.881Z,0.00
2023-05-19T00:30:21.918Z,0.00
2023-05-19T00:30:45.253Z,0.00
2023-05-19T00:31:07.585Z,0.00
2023-05-19T00:31:41.996Z,0.00
2023-05-19T00:32:14.049Z,0.00
2023-05-19T00:32:49.488Z,0.00
2023-05-19T00:33:17.844Z,0.00
2023-05-19T00:33:50.105Z,0.00
2023-05-19T00:34:22.084Z,0.00
2023-05-19T00:34:44.652Z,0.00
2023-05-19T00:35:07.017Z,0.00
2023-05-19T00:35:48.595Z,0.00
2023-05-19T00:36:13.948Z,0.00
2023-05-19T00:36:49.497Z,0.00
2023-05-19T00:37:18.133Z,0.00
2023-05-19T00:37:49.996Z,0.00
2023-05-19T00:38:22.327Z,0.00
2023-05-19T00:38:45.159Z,0.00
2023-05-19T00:39:07.431Z,0.00
2023-05-19T00:39:41.902Z,0.00
2023-05-19T00:40:17.047Z,0.00
2023-05-19T00:40:45.832Z,0.00
2023-05-19T00:41:18.048Z,0.00
2023-05-19T00:41:50.131Z,0.00
2023-05-19T00:42:22.220Z,0.00
2023-05-19T00:42:45.828Z,0.00
2023-05-19T00:43:08.200Z,0.00
2023-05-19T00:43:47.432Z,0.00
2023-05-19T00:44:13.992Z,0.00
2023-05-19T00:44:45.826Z,0.00
2023-05-19T00:45:18.006Z,0.00
2023-05-19T00:45:51.364Z,0.00
2023-05-19T00:46:21.954Z,0.00
2023-05-19T00:46:46.587Z,0.00
2023-05-19T00:47:09.250Z,0.00
2023-05-19T00:47:41.892Z,0.00
2023-05-19T00:48:14.426Z,0.00
2023-05-19T00:48:45.954Z,0.00
2023-05-19T00:49:17.823Z,0.00
2023-05-19T00:49:50.193Z,0.00
2023-05-19T00:50:21.956Z,0.00
2023-05-19T00:50:44.744Z,0.00
2023-05-19T00:51:07.214Z,0.00
2023-05-19T00:51:42.057Z,0.00
2023-05-19T00:52:14.221Z,0.00
2023-05-19T00:52:46.048Z,0.00
2023-05-19T00:53:17.809Z,0.00
2023-05-19T00:53:50.344Z,0.00
2023-05-19T00:54:22.009Z,0.00
2023-05-19T00:54:45.343Z,0.00
2023-05-19T00:55:07.666Z,0.00
2023-05-19T00:55:41.812Z,0.00
2023-05-19T00:56:13.860Z,0.00
2023-05-19T00:56:45.922Z,0.00
2023-05-19T00:57:17.998Z,0.00
2023-05-19T00:57:50.092Z,0.00
2023-05-19T00:58:22.073Z,0.00
2023-05-19T00:58:44.994Z,0.00
2023-05-19T00:59:07.391Z,0.00
2023-05-19T00:59:36.726Z,0.00
2023-05-19T01:00:18.090Z,0.00
2023-05-19T01:00:45.965Z,0.00
2023-05-19T01:01:18.090Z,0.00
2023-05-19T01:01:50.026Z,0.00
2023-05-19T01:02:22.085Z,0.00
2023-05-19T01:02:45.102Z,0.00
2023-05-19T01:03:08.590Z,0.00
2023-05-19T01:03:42.261Z,0.00
2023-05-19T01:04:19.168Z,0.00
2023-05-19T01:04:39.998Z,0.00
2023-05-19T01:05:18.312Z,0.00
2023-05-19T01:05:49.887Z,0.00
2023-05-19T01:06:21.872Z,0.00
2023-05-19T01:06:44.810Z,0.00
2023-05-19T01:07:07.364Z,0.00
2023-05-19T01:07:42.150Z,0.00
2023-05-19T01:08:13.922Z,0.00
2023-05-19T01:08:45.827Z,0.00
2023-05-19T01:09:17.974Z,0.00
2023-05-19T01:09:49.982Z,0.00
2023-05-19T01:10:21.788Z,0.00
2023-05-19T01:10:44.863Z,0.00
2023-05-19T01:11:07.248Z,0.00
2023-05-19T01:11:42.044Z,0.00
2023-05-19T01:12:14.401Z,0.00
2023-05-19T01:12:45.979Z,0.00
2023-05-19T01:13:19.465Z,0.00
2023-05-19T01:13:50.405Z,0.00
2023-05-19T01:14:21.934Z,0.00
2023-05-19T01:14:44.654Z,0.00
2023-05-19T01:15:07.631Z,0.00
2023-05-19T01:15:42.036Z,0.00
2023-05-19T01:16:13.961Z,0.00
2023-05-19T01:16:45.830Z,0.00
2023-05-19T01:17:19.305Z,0.00
2023-05-19T01:17:50.084Z,0.00
2023-05-19T01:18:21.921Z,0.00
2023-05-19T01:18:44.544Z,0.00
2023-05-19T01:19:06.757Z,0.00
2023-05-19T01:19:41.913Z,0.00
2023-05-19T01:20:14.073Z,0.00
2023-05-19T01:20:46.014Z,0.00
2023-05-19T01:21:17.924Z,0.00
2023-05-19T01:21:50.284Z,0.00
2023-05-19T01:22:22.000Z,0.00
2023-05-19T01:22:44.621Z,0.00
2023-05-19T01:23:07.059Z,0.00
2023-05-19T01:23:42.056Z,0.00
2023-05-19T01:24:13.930Z,0.00
2023-05-19T01:24:45.839Z,0.00
2023-05-19T01:25:17.897Z,0.00
2023-05-19T01:25:50.183Z,0.00
2023-05-19T01:26:22.048Z,0.00
2023-05-19T01:26:44.709Z,0.00
2023-05-19T01:27:07.057Z,0.00
2023-05-19T01:27:41.802Z,0.00
2023-05-19T01:28:13.952Z,0.00
2023-05-19T01:28:45.879Z,0.00
2023-05-19T01:29:18.013Z,0.00
2023-05-19T01:29:49.860Z,0.00
2023-05-19T01:30:22.065Z,0.00
2023-05-19T01:30:44.611Z,0.00
2023-05-19T01:31:06.852Z,0.00
2023-05-19T01:31:41.988Z,0.00
2023-05-19T01:32:14.377Z,0.00
2023-05-19T01:32:45.887Z,0.00
2023-05-19T01:33:17.960Z,0.00
2023-05-19T01:33:49.871Z,0.00
2023-05-19T01:34:21.803Z,0.00
2023-05-19T01:34:44.554Z,0.00
2023-05-19T01:35:06.782Z,0.00
2023-05-19T01:35:42.010Z,0.00
2023-05-19T01:36:13.832Z,0.00
2023-05-19T01:36:45.999Z,0.00
2023-05-19T01:37:18.045Z,0.00
2023-05-19T01:37:49.872Z,0.00
2023-05-19T01:38:21.920Z,0.00
2023-05-19T01:38:45.017Z,0.00
2023-05-19T01:39:07.428Z,0.00
2023-05-19T01:39:41.860Z,0.00
2023-05-19T01:40:13.763Z,0.00
2023-05-19T01:40:46.192Z,0.00
2023-05-19T01:41:17.978Z,0.00
2023-05-19T01:41:49.803Z,0.00
2023-05-19T01:42:21.797Z,0.00
2023-05-19T01:42:44.618Z,0.00
2023-05-19T01:43:07.303Z,0.00
2023-05-19T01:43:43.402Z,0.00
2023-05-19T01:44:13.986Z,0.00
2023-05-19T01:44:45.993Z,0.00
2023-05-19T01:45:18.044Z,0.00
2023-05-19T01:45:49.902Z,0.00
2023-05-19T01:46:21.985Z,0.00
2023-05-19T01:46:44.875Z,0.00
2023-05-19T01:47:07.622Z,0.00
2023-05-19T01:47:41.916Z,0.00
2023-05-19T01:48:13.952Z,0.00
2023-05-19T01:48:45.819Z,0.00
2023-05-19T01:49:17.906Z,0.00
2023-05-19T01:49:49.885Z,0.00
2023-05-19T01:50:22.233Z,0.00
2023-05-19T01:50:45.069Z,0.00
2023-05-19T01:51:08.007Z,0.00
2023-05-19T01:51:41.919Z,0.00
2023-05-19T01:52:13.921Z,0.00
2023-05-19T01:52:45.904Z,0.00
2023-05-19T01:53:20.588Z,0.00
2023-05-19T01:53:50.212Z,0.00
2023-05-19T01:54:21.850Z,0.00
2023-05-19T01:54:45.057Z,0.00
2023-05-19T01:55:07.205Z,0.00
2023-05-19T01:55:41.908Z,0.00
2023-05-19T01:56:14.124Z,0.00
2023-05-19T01:56:45.901Z,0.00
2023-05-19T01:57:17.811Z,0.00
2023-05-19T01:57:49.894Z,0.00
2023-05-19T01:58:21.894Z,0.00
2023-05-19T01:58:44.648Z,0.00
2023-05-19T01:59:06.972Z,0.00
2023-05-19T01:59:41.812Z,0.00
2023-05-19T02:00:14.129Z,0.00
2023-05-19T02:00:46.305Z,0.00
2023-05-19T02:01:26.476Z,0.00
2023-05-19T02:01:44.734Z,0.00
2023-05-19T02:02:18.232Z,0.00
2023-05-19T02:02:50.515Z,0.00
2023-05-19T02:03:26.776Z,0.00
2023-05-19T02:04:18.025Z,0.00
2023-05-19T02:04:40.461Z,0.00
2023-05-19T02:05:26.791Z,0.00
2023-05-19T02:05:50.567Z,0.00
2023-05-19T02:06:18.836Z,0.00
2023-05-19T02:06:49.931Z,0.00
2023-05-19T02:07:29.788Z,0.00
2023-05-19T02:07:48.628Z,0.00
2023-05-19T02:08:11.335Z,0.00
2023-05-19T02:08:45.951Z,0.00
2023-05-19T02:09:17.823Z,0.00
2023-05-19T02:09:50.205Z,0.00
2023-05-19T02:10:21.999Z,0.00
2023-05-19T02:10:44.677Z,0.00
2023-05-19T02:11:08.807Z,0.00
2023-05-19T02:11:47.033Z,0.00
2023-05-19T02:12:13.908Z,0.00
2023-05-19T02:12:46.008Z,0.00
2023-05-19T02:13:21.167Z,0.00
2023-05-19T02:13:51.553Z,0.00
2023-05-19T02:14:22.750Z,0.00
2023-05-19T02:14:45.654Z,0.00
2023-05-19T02:15:10.174Z,0.00
2023-05-19T02:15:42.009Z,0.00
2023-05-19T02:16:17.890Z,0.00
2023-05-19T02:16:45.866Z,0.00
2023-05-19T02:17:21.858Z,0.00
2023-05-19T02:17:44.098Z,0.00
2023-05-19T02:18:17.844Z,0.00
2023-05-19T02:18:49.555Z,0.00
2023-05-19T02:19:26.129Z,0.00
2023-05-19T02:19:48.890Z,0.00
2023-05-19T02:20:13.738Z,0.00
2023-05-19T02:20:45.885Z,0.00
2023-05-19T02:21:13.956Z,0.00
2023-05-19T02:21:50.419Z,0.00
2023-05-19T02:22:22.610Z,0.00
2023-05-19T02:22:44.893Z,0.00
2023-05-19T02:23:07.371Z,0.00
2023-05-19T02:23:42.900Z,0.00
2023-05-19T02:24:13.985Z,0.00
2023-05-19T02:24:45.911Z,0.00
2023-05-19T02:25:17.891Z,0.00
2023-05-19T02:25:55.053Z,0.00
2023-05-19T02:26:17.360Z,0.00
2023-05-19T02:26:49.824Z,0.00
2023-05-19T02:27:26.486Z,0.00
2023-05-19T02:27:48.557Z,0.00
2023-05-19T02:28:11.723Z,0.00
2023-05-19T02:28:46.095Z,0.00
2023-05-19T02:29:17.790Z,0.00
2023-05-19T02:29:51.422Z,0.00
2023-05-19T02:30:22.227Z,0.00
2023-05-19T02:30:44.813Z,0.00
2023-05-19T02:31:07.275Z,0.00
2023-05-19T02:31:41.860Z,0.00
2023-05-19T02:32:14.082Z,0.00
2023-05-19T02:32:45.847Z,0.00
2023-05-19T02:33:18.170Z,0.00
2023-05-19T02:33:50.137Z,0.00
2023-05-19T02:34:21.916Z,0.00
2023-05-19T02:34:44.944Z,0.00
2023-05-19T02:35:08.865Z,0.00
2023-05-19T02:35:41.926Z,0.00
2023-05-19T02:36:13.835Z,0.00
2023-05-19T02:36:46.112Z,0.00
2023-05-19T02:37:18.257Z,0.00
2023-05-19T02:37:49.941Z,0.00
2023-05-19T02:38:21.915Z,0.00
2023-05-19T02:38:44.737Z,0.00
2023-05-19T02:39:07.328Z,0.00
2023-05-19T02:39:41.979Z,0.00
2023-05-19T02:40:13.888Z,0.00
2023-05-19T02:40:45.867Z,0.00
2023-05-19T02:41:17.773Z,0.00
2023-05-19T02:41:49.926Z,0.00
2023-05-19T02:42:21.799Z,0.00
2023-05-19T02:42:44.482Z,0.00
2023-05-19T02:43:06.955Z,0.00
2023-05-19T02:43:41.966Z,0.00
2023-05-19T02:44:14.012Z,0.00
2023-05-19T02:44:45.893Z,0.00
2023-05-19T02:45:18.017Z,0.00
2023-05-19T02:45:51.416Z,0.00
2023-05-19T02:46:21.888Z,0.00
2023-05-19T02:46:46.826Z,0.00
2023-05-19T02:47:09.056Z,0.00
2023-05-19T02:47:41.916Z,0.00
2023-05-19T02:48:19.781Z,0.00
2023-05-19T02:48:45.909Z,0.00
2023-05-19T02:49:18.002Z,0.00
2023-05-19T02:49:49.751Z,0.00
2023-05-19T02:50:21.877Z,0.00
2023-05-19T02:50:44.866Z,0.00
2023-05-19T02:51:06.986Z,0.00
2023-05-19T02:51:41.900Z,0.00
2023-05-19T02:52:30.431Z,0.00
2023-05-19T02:52:52.934Z,0.00
2023-05-19T02:53:15.342Z,0.00
2023-05-19T02:53:53.581Z,0.00
2023-05-19T02:54:16.081Z,0.00
2023-05-19T02:54:49.708Z,0.00
2023-05-19T02:55:26.106Z,0.00
2023-05-19T02:55:49.183Z,0.00
2023-05-19T02:56:11.863Z,0.00
2023-05-19T02:56:45.961Z,0.00
2023-05-19T02:57:17.769Z,0.00
2023-05-19T02:57:49.915Z,0.00
2023-05-19T02:58:21.968Z,0.00
2023-05-19T02:58:44.630Z,0.00
2023-05-19T02:59:07.068Z,0.00
2023-05-19T02:59:41.996Z,0.00
2023-05-19T03:00:23.683Z,0.00
2023-05-19T03:00:45.899Z,0.00
2023-05-19T03:01:18.144Z,0.00
2023-05-19T03:01:50.134Z,0.00
2023-05-19T03:02:21.793Z,0.00
2023-05-19T03:02:44.746Z,0.00
2023-05-19T03:03:06.894Z,0.00
2023-05-19T03:03:43.391Z,0.00
2023-05-19T03:04:10.883Z,0.00
2023-05-19T03:04:46.427Z,0.00
2023-05-19T03:05:18.034Z,0.00
2023-05-19T03:05:50.331Z,0.00
2023-05-19T03:06:27.431Z,0.00
2023-05-19T03:06:46.873Z,0.00
2023-05-19T03:07:14.008Z,0.00
2023-05-19T03:07:47.919Z,0.00
2023-05-19T03:08:14.167Z,0.00
2023-05-19T03:08:46.331Z,0.00
2023-05-19T03:09:17.978Z,0.00
2023-05-19T03:09:49.856Z,0.00
2023-05-19T03:10:22.033Z,0.00
2023-05-19T03:10:44.620Z,0.00
2023-05-19T03:11:07.070Z,0.00
2023-05-19T03:11:42.163Z,0.00
2023-05-19T03:12:14.624Z,0.00
2023-05-19T03:12:50.362Z,0.00
2023-05-19T03:13:13.133Z,0.00
2023-05-19T03:13:50.400Z,0.00
2023-05-19T03:14:21.906Z,0.00
2023-05-19T03:14:44.671Z,0.00
2023-05-19T03:15:07.439Z,0.00
2023-05-19T03:15:41.833Z,0.00
2023-05-19T03:16:13.884Z,0.00
2023-05-19T03:16:46.085Z,0.00
2023-05-19T03:17:20.131Z,0.00
2023-05-19T03:17:50.209Z,0.00
2023-05-19T03:18:21.880Z,0.00
2023-05-19T03:18:44.617Z,0.00
2023-05-19T03:19:06.956Z,0.00
2023-05-19T03:19:41.906Z,0.00
2023-05-19T03:20:14.241Z,0.00
2023-05-19T03:20:46.493Z,0.00
2023-05-19T03:21:19.474Z,0.00
2023-05-19T03:21:50.294Z,0.00
2023-05-19T03:22:22.108Z,0.36
2023-05-19T03:22:44.759Z,0.00
2023-05-19T03:23:07.334Z,0.00
2023-05-19T03:23:41.898Z,0.00
2023-05-19T03:24:14.117Z,0.36
2023-05-19T03:24:45.784Z,0.36
2023-05-19T03:25:19.728Z,0.36
2023-05-19T03:25:49.819Z,0.00
2023-05-19T03:26:21.929Z,0.00
2023-05-19T03:26:45.038Z,0.00
2023-05-19T03:27:07.575Z,0.36
2023-05-19T03:27:42.034Z,0.00
2023-05-19T03:28:13.796Z,0.00
2023-05-19T03:28:45.955Z,0.85
2023-05-19T03:29:20.693Z,0.85
2023-05-19T03:29:49.918Z,1.71
2023-05-19T03:30:22.010Z,1.22
2023-05-19T03:30:44.743Z,1.71
2023-05-19T03:31:07.208Z,1.22
2023-05-19T03:31:42.140Z,1.22
2023-05-19T03:32:14.112Z,2.08
2023-05-19T03:32:46.053Z,2.57
2023-05-19T03:33:18.320Z,2.08
2023-05-19T03:33:45.308Z,2.08
2023-05-19T03:34:20.844Z,2.08
2023-05-19T03:34:53.200Z,2.94
2023-05-19T03:35:25.970Z,2.94
2023-05-19T03:35:48.631Z,3.43
2023-05-19T03:36:11.097Z,2.57
2023-05-19T03:36:46.032Z,2.94
2023-05-19T03:37:18.322Z,3.43
2023-05-19T03:37:49.999Z,3.79
2023-05-19T03:38:22.108Z,3.79
2023-05-19T03:38:44.769Z,3.79
2023-05-19T03:39:07.470Z,3.79
2023-05-19T03:39:42.620Z,4.77
2023-05-19T03:40:14.339Z,4.28
2023-05-19T03:40:46.142Z,4.28
2023-05-19T03:41:17.974Z,4.77
2023-05-19T03:41:50.258Z,4.77
2023-05-19T03:42:22.414Z,5.63
2023-05-19T03:42:44.602Z,5.14
2023-05-19T03:43:07.088Z,5.14
2023-05-19T03:43:41.951Z,5.63
2023-05-19T03:44:14.898Z,5.99
2023-05-19T03:44:46.871Z,6.48
2023-05-19T03:45:17.995Z,6.85
2023-05-19T03:45:50.331Z,5.99
2023-05-19T03:46:26.532Z,7.34
2023-05-19T03:46:45.522Z,7.34
2023-05-19T03:47:08.665Z,7.34
2023-05-19T03:47:42.029Z,7.70
2023-05-19T03:48:13.868Z,7.34
2023-05-19T03:48:46.010Z,8.19
2023-05-19T03:49:17.959Z,7.70
2023-05-19T03:49:50.025Z,8.56
2023-05-19T03:50:23.129Z,8.56
2023-05-19T03:50:44.986Z,9.05
2023-05-19T03:51:08.423Z,9.05
2023-05-19T03:51:42.428Z,9.05
2023-05-19T03:52:15.558Z,9.54
2023-05-19T03:52:46.602Z,9.91
2023-05-19T03:53:19.790Z,11.25
2023-05-19T03:53:49.949Z,10.77
2023-05-19T03:54:24.224Z,10.77
2023-05-19T03:54:44.630Z,11.25
2023-05-19T03:55:07.068Z,11.62
2023-05-19T03:55:46.513Z,12.48
2023-05-19T03:56:08.840Z,12.48
2023-05-19T03:56:45.996Z,12.48
2023-05-19T03:57:21.410Z,12.48
2023-05-19T03:57:50.120Z,13.33
2023-05-19T03:58:24.675Z,12.48
2023-05-19T03:58:45.178Z,12.97
2023-05-19T03:59:07.873Z,13.33
2023-05-19T03:59:42.088Z,13.33
2023-05-19T04:00:14.048Z,14.31
2023-05-19T04:00:46.735Z,14.31
2023-05-19T04:01:18.127Z,14.31
2023-05-19T04:01:50.066Z,15.53
2023-05-19T04:02:22.030Z,15.53
2023-05-19T04:02:48.511Z,15.17
2023-05-19T04:03:09.883Z,15.53
2023-05-19T04:03:42.318Z,15.53
2023-05-19T04:04:14.138Z,16.02
2023-05-19T04:04:46.145Z,16.39
2023-05-19T04:05:18.225Z,17.25
2023-05-19T04:05:49.959Z,16.88
2023-05-19T04:06:22.552Z,17.25
2023-05-19T04:06:45.863Z,16.88
2023-05-19T04:07:08.473Z,17.73
2023-05-19T04:07:42.000Z,17.25
2023-05-19T04:08:14.423Z,17.73
2023-05-19T04:08:46.005Z,18.11
2023-05-19T04:09:19.475Z,18.11
2023-05-19T04:09:50.026Z,19.08
2023-05-19T04:10:22.172Z,19.08
2023-05-19T04:10:45.790Z,18.60
2023-05-19T04:11:07.351Z,19.08
2023-05-19T04:11:41.898Z,19.08
2023-05-19T04:12:08.275Z,20.31
2023-05-19T04:12:47.563Z,19.94
2023-05-19T04:13:19.828Z,20.31
2023-05-19T04:13:49.977Z,20.31
2023-05-19T04:14:23.664Z,20.80
2023-05-19T04:14:44.965Z,21.65
2023-05-19T04:15:09.112Z,21.65
2023-05-19T04:15:43.583Z,21.65
2023-05-19T04:16:14.038Z,22.02
2023-05-19T04:16:46.033Z,22.51
2023-05-19T04:17:19.691Z,22.87
2023-05-19T04:17:50.629Z,22.51
2023-05-19T04:18:22.089Z,23.85
2023-05-19T04:18:44.825Z,22.87
2023-05-19T04:19:07.172Z,24.71
2023-05-19T04:19:42.174Z,24.22
2023-05-19T04:20:14.553Z,24.22
2023-05-19T04:20:46.246Z,24.22
2023-05-19T04:21:19.311Z,25.07
2023-05-19T04:21:50.279Z,25.07
2023-05-19T04:22:22.730Z,25.07
2023-05-19T04:22:45.323Z,25.07
2023-05-19T04:23:08.575Z,25.07
2023-05-19T04:23:42.860Z,25.94
2023-05-19T04:24:14.824Z,25.56
2023-05-19T04:24:46.411Z,26.79
2023-05-19T04:25:17.928Z,26.42
2023-05-19T04:25:49.946Z,26.79
2023-05-19T04:26:21.975Z,28.14
2023-05-19T04:26:44.899Z,27.65
2023-05-19T04:27:08.452Z,27.65
2023-05-19T04:27:42.126Z,27.65
2023-05-19T04:28:15.743Z,27.65
2023-05-19T04:28:46.047Z,29.48
2023-05-19T04:29:19.013Z,29.48
2023-05-19T04:29:49.911Z,29.48
2023-05-19T04:30:22.485Z,29.48
2023-05-19T04:30:44.840Z,29.85
2023-05-19T04:31:07.991Z,30.70
2023-05-19T04:31:50.264Z,30.34
2023-05-19T04:32:13.746Z,31.19
2023-05-19T04:32:48.380Z,31.19
2023-05-19T04:33:18.911Z,31.56
2023-05-19T04:33:50.943Z,32.05
2023-05-19T04:34:22.170Z,32.05
2023-05-19T04:34:44.970Z,32.42
2023-05-19T04:35:07.519Z,33.39
2023-05-19T04:35:41.945Z,33.39
2023-05-19T04:36:14.234Z,32.90
2023-05-19T04:36:46.414Z,33.39
2023-05-19T04:37:18.959Z,33.76
2023-05-19T04:37:49.996Z,34.25
2023-05-19T04:38:22.281Z,34.25
2023-05-19T04:38:45.079Z,34.62
2023-05-19T04:39:07.694Z,35.11
2023-05-19T04:39:42.993Z,35.48
2023-05-19T04:40:17.879Z,35.97
2023-05-19T04:40:40.477Z,36.33
2023-05-19T04:41:18.276Z,36.82
2023-05-19T04:41:51.443Z,36.33
2023-05-19T04:42:21.824Z,36.33
2023-05-19T04:42:45.020Z,36.82
2023-05-19T04:43:07.083Z,37.68
2023-05-19T04:43:41.941Z,37.19
2023-05-19T04:44:14.158Z,37.19
2023-05-19T04:44:46.090Z,37.68
2023-05-19T04:45:17.997Z,37.68
2023-05-19T04:45:49.866Z,38.17
2023-05-19T04:46:22.159Z,39.39
2023-05-19T04:46:45.636Z,39.39
2023-05-19T04:47:07.973Z,39.02
2023-05-19T04:47:42.078Z,39.39
2023-05-19T04:48:13.861Z,40.24
2023-05-19T04:48:45.971Z,40.24
2023-05-19T04:49:17.781Z,40.73
2023-05-19T04:49:49.921Z,41.10
2023-05-19T04:50:21.790Z,40.73
2023-05-19T04:50:44.588Z,41.59
2023-05-19T04:51:06.838Z,41.59
2023-05-19T04:51:42.061Z,41.96
2023-05-19T04:52:14.304Z,42.94
2023-05-19T04:52:45.964Z,41.96
2023-05-19T04:53:18.457Z,42.94
2023-05-19T04:53:49.910Z,42.94
2023-05-19T04:54:22.095Z,43.31
2023-05-19T04:54:44.677Z,43.80
2023-05-19T04:55:07.187Z,43.31
2023-05-19T04:55:42.056Z,44.16
2023-05-19T04:56:13.991Z,44.16
2023-05-19T04:56:45.913Z,44.65
2023-05-19T04:57:18.193Z,45.02
2023-05-19T04:57:49.941Z,44.16
2023-05-19T04:58:21.925Z,45.02
2023-05-19T04:58:44.926Z,45.51
2023-05-19T04:59:07.254Z,45.87
2023-05-19T04:59:41.970Z,45.87
2023-05-19T05:00:21.585Z,46.36
2023-05-19T05:00:45.870Z,46.36
2023-05-19T05:01:17.855Z,46.36
2023-05-19T05:01:49.988Z,47.22
2023-05-19T05:02:22.156Z,46.73
2023-05-19T05:02:46.748Z,47.22
2023-05-19T05:03:10.575Z,47.71
2023-05-19T05:03:43.445Z,47.71
2023-05-19T05:04:14.181Z,48.07
2023-05-19T05:04:49.801Z,47.71
2023-05-19T05:05:18.046Z,48.93
2023-05-19T05:05:50.118Z,48.56
2023-05-19T05:06:21.957Z,48.93
2023-05-19T05:06:44.898Z,49.42
2023-05-19T05:07:07.520Z,48.93
2023-05-19T05:07:42.002Z,48.93
2023-05-19T05:08:13.911Z,49.42
2023-05-19T05:08:45.965Z,50.28
2023-05-19T05:09:18.248Z,49.79
2023-05-19T05:09:49.981Z,49.79
2023-05-19T05:10:22.003Z,50.28
2023-05-19T05:10:45.395Z,50.65
2023-05-19T05:11:09.338Z,51.14
2023-05-19T05:11:43.331Z,51.14
2023-05-19T05:12:14.182Z,51.50
2023-05-19T05:12:45.936Z,51.50
2023-05-19T05:13:19.455Z,51.50
2023-05-19T05:13:50.049Z,51.50
2023-05-19T05:14:22.045Z,52.48
2023-05-19T05:14:44.674Z,51.99
2023-05-19T05:15:10.822Z,51.99
2023-05-19T05:15:41.848Z,52.85
2023-05-19T05:16:14.440Z,52.85
2023-05-19T05:16:46.117Z,53.34
2023-05-19T05:17:17.872Z,53.70
2023-05-19T05:17:50.077Z,54.19
2023-05-19T05:18:21.851Z,54.56
2023-05-19T05:18:45.012Z,54.19
2023-05-19T05:19:07.044Z,53.70
2023-05-19T05:19:42.076Z,54.19
2023-05-19T05:20:20.351Z,54.56
2023-05-19T05:20:45.905Z,54.56
2023-05-19T05:21:18.181Z,55.05
2023-05-19T05:21:53.464Z,55.05
2023-05-19T05:22:21.914Z,55.05
2023-05-19T05:22:45.225Z,55.41
2023-05-19T05:23:07.549Z,55.90
2023-05-19T05:23:42.303Z,56.27
2023-05-19T05:24:13.776Z,56.76
2023-05-19T05:24:45.886Z,56.76
2023-05-19T05:25:17.864Z,56.27
2023-05-19T05:25:49.835Z,56.76
2023-05-19T05:26:21.840Z,57.62
2023-05-19T05:26:46.591Z,58.11
2023-05-19T05:27:08.764Z,58.11
2023-05-19T05:27:41.985Z,58.11
2023-05-19T05:28:14.246Z,58.97
2023-05-19T05:28:46.045Z,58.97
2023-05-19T05:29:17.853Z,58.97
2023-05-19T05:29:51.571Z,58.97
2023-05-19T05:30:17.420Z,58.97
2023-05-19T05:30:50.913Z,59.82
2023-05-19T05:31:27.249Z,60.19
2023-05-19T05:31:49.576Z,58.97
2023-05-19T05:32:12.579Z,61.17
2023-05-19T05:32:47.141Z,59.82
2023-05-19T05:33:18.819Z,60.19
2023-05-19T05:33:50.475Z,60.19
2023-05-19T05:34:22.978Z,61.53
2023-05-19T05:34:45.634Z,60.19
2023-05-19T05:35:08.942Z,61.17
2023-05-19T05:35:42.206Z,61.53
2023-05-19T05:36:14.185Z,61.53
2023-05-19T05:36:46.772Z,62.39
2023-05-19T05:37:19.976Z,62.02
2023-05-19T05:37:49.998Z,62.39
2023-05-19T05:38:22.059Z,62.39
2023-05-19T05:38:45.022Z,63.24
2023-05-19T05:39:07.130Z,63.73
2023-05-19T05:39:43.146Z,63.73
2023-05-19T05:40:13.900Z,64.59
2023-05-19T05:40:45.934Z,64.10
2023-05-19T05:41:17.858Z,64.10
2023-05-19T05:41:49.938Z,64.10
2023-05-19T05:42:21.976Z,64.96
2023-05-19T05:42:44.647Z,64.59
2023-05-19T05:43:07.560Z,64.59
2023-05-19T05:43:48.952Z,64.96
2023-05-19T05:44:14.157Z,65.45
2023-05-19T05:44:46.213Z,66.31
2023-05-19T05:45:17.944Z,66.31
2023-05-19T05:45:49.919Z,66.80
2023-05-19T05:46:22.265Z,71.93
2023-05-19T05:46:44.987Z,76.70
2023-05-19T05:47:07.332Z,87.96
2023-05-19T05:47:44.020Z,99.34
2023-05-19T05:48:13.890Z,104.48
2023-05-19T05:48:46.003Z,105.82
2023-05-19T05:49:17.966Z,105.82
2023-05-19T05:49:52.123Z,106.19
2023-05-19T05:50:23.074Z,107.04
2023-05-19T05:50:46.032Z,107.53
2023-05-19T05:51:09.677Z,109.24
2023-05-19T05:51:54.373Z,109.24
2023-05-19T05:52:14.012Z,110.10
2023-05-19T05:52:46.215Z,110.59
2023-05-19T05:53:18.118Z,112.30
2023-05-19T05:53:49.983Z,113.65
2023-05-19T05:54:22.607Z,113.16
2023-05-19T05:54:45.193Z,113.16
2023-05-19T05:55:07.770Z,113.65
2023-05-19T05:55:41.906Z,115.36
2023-05-19T05:56:13.781Z,115.73
2023-05-19T05:56:46.269Z,117.93
2023-05-19T05:57:18.093Z,119.27
2023-05-19T05:57:49.996Z,120.50
2023-05-19T05:58:21.877Z,120.99
2023-05-19T05:58:45.683Z,120.99
2023-05-19T05:59:09.266Z,123.56
2023-05-19T05:59:42.384Z,124.90
2023-05-19T06:00:16.183Z,127.10
2023-05-19T06:00:46.897Z,128.33
2023-05-19T06:01:18.330Z,130.53
2023-05-19T06:01:50.372Z,132.73
2023-05-19T06:02:30.444Z,135.67
2023-05-19T06:02:47.900Z,136.16
2023-05-19T06:03:27.057Z,139.58
2023-05-19T06:03:56.913Z,138.73
2023-05-19T06:04:12.016Z,144.85
2023-05-19T06:04:46.572Z,146.56
2023-05-19T06:05:21.863Z,147.90
2023-05-19T06:05:50.475Z,148.76
2023-05-19T06:06:22.136Z,158.30
2023-05-19T06:06:46.801Z,159.53
2023-05-19T06:07:14.094Z,163.93
2023-05-19T06:07:36.095Z,168.70
2023-05-19T06:08:14.291Z,170.05
2023-05-19T06:08:47.287Z,178.61
2023-05-19T06:09:17.895Z,200.39
2023-05-19T06:09:50.336Z,202.10
2023-05-19T06:10:22.009Z,192.56
2023-05-19T06:10:48.014Z,199.53
2023-05-19T06:11:26.061Z,197.32
2023-05-19T06:11:51.111Z,223.39
2023-05-19T06:12:11.178Z,258.98
2023-05-19T06:12:48.044Z,213.84
2023-05-19T06:13:12.499Z,227.66
2023-05-19T06:13:53.024Z,227.30
2023-05-19T06:14:22.292Z,227.30
2023-05-19T06:14:47.801Z,227.66
2023-05-19T06:15:13.282Z,229.87
2023-05-19T06:15:43.968Z,232.44
2023-05-19T06:16:15.198Z,234.64
2023-05-19T06:16:48.045Z,237.70
2023-05-19T06:17:17.989Z,241.12
2023-05-19T06:17:50.717Z,245.04
2023-05-19T06:18:22.570Z,246.75
2023-05-19T06:18:45.174Z,248.46
2023-05-19T06:19:07.819Z,251.15
2023-05-19T06:19:41.823Z,254.21
2023-05-19T06:20:20.877Z,261.92
2023-05-19T06:20:48.516Z,245.04
2023-05-19T06:21:18.529Z,263.27
2023-05-19T06:21:50.185Z,271.95
2023-05-19T06:22:22.492Z,270.61
2023-05-19T06:22:45.009Z,265.47
2023-05-19T06:23:08.085Z,268.52
2023-05-19T06:23:43.548Z,273.30
2023-05-19T06:24:14.137Z,280.64
2023-05-19T06:24:49.233Z,276.24
2023-05-19T06:25:17.953Z,270.24
2023-05-19T06:25:50.147Z,272.81
2023-05-19T06:26:31.656Z,273.66
2023-05-19T06:26:44.733Z,275.01
2023-05-19T06:27:18.739Z,276.72
2023-05-19T06:27:42.287Z,283.69
2023-05-19T06:28:21.614Z,278.07
2023-05-19T06:28:51.808Z,287.12
2023-05-19T06:29:22.905Z,291.40
2023-05-19T06:29:51.838Z,294.95
2023-05-19T06:30:22.384Z,297.15
2023-05-19T06:30:45.069Z,298.37
2023-05-19T06:31:08.032Z,300.09
2023-05-19T06:31:41.998Z,303.64
2023-05-19T06:32:14.124Z,321.37
2023-05-19T06:32:46.360Z,310.61